sensor_id;sensor_type;location;lat;lon;timestamp;P1;durP1;ratioP1;P2;durP2;ratioP2
61471;SDS011;47337;54.068;12.114;2024-02-26T00:01:10;9.45;;;6.35;;
61471;SDS011;47337;54.068;12.114;2024-02-26T00:03:35;11.25;;;6.75;;
61471;SDS011;47337;54.068;12.114;2024-02-26T00:06:01;13.95;;;7.65;;
61471;SDS011;47337;54.068;12.114;2024-02-26T00:08:27;10.27;;;6.72;;
61471;SDS011;47337;54.068;12.114;2024-02-26T00:10:52;9.73;;;6.68;;
61471;SDS011;47337;54.068;12.114;2024-02-26T00:13:17;10.05;;;5.85;;
61471;SDS011;47337;54.068;12.114;2024-02-26T00:15:42;10.20;;;6.20;;
61471;SDS011;47337;54.068;12.114;2024-02-26T00:18:10;9.80;;;6.43;;
61471;SDS011;47337;54.068;12.114;2024-02-26T00:20:35;13.23;;;6.60;;
61471;SDS011;47337;54.068;12.114;2024-02-26T00:23:00;9.23;;;6.13;;
61471;SDS011;47337;54.068;12.114;2024-02-26T00:25:26;10.85;;;6.72;;
61471;SDS011;47337;54.068;12.114;2024-02-26T00:27:51;9.98;;;6.40;;
61471;SDS011;47337;54.068;12.114;2024-02-26T00:30:19;10.77;;;6.80;;
61471;SDS011;47337;54.068;12.114;2024-02-26T00:32:44;13.15;;;6.75;;
61471;SDS011;47337;54.068;12.114;2024-02-26T00:35:09;11.90;;;6.47;;
61471;SDS011;47337;54.068;12.114;2024-02-26T00:37:35;11.20;;;6.32;;
61471;SDS011;47337;54.068;12.114;2024-02-26T00:40:00;9.68;;;6.18;;
61471;SDS011;47337;54.068;12.114;2024-02-26T00:42:25;8.43;;;5.82;;
61471;SDS011;47337;54.068;12.114;2024-02-26T00:44:51;9.55;;;5.53;;
61471;SDS011;47337;54.068;12.114;2024-02-26T00:47:16;9.15;;;5.50;;
61471;SDS011;47337;54.068;12.114;2024-02-26T00:49:41;9.88;;;5.97;;
61471;SDS011;47337;54.068;12.114;2024-02-26T00:52:06;8.13;;;5.25;;
61471;SDS011;47337;54.068;12.114;2024-02-26T00:54:32;8.63;;;5.72;;
61471;SDS011;47337;54.068;12.114;2024-02-26T00:56:57;8.15;;;5.65;;
61471;SDS011;47337;54.068;12.114;2024-02-26T00:59:22;8.75;;;5.55;;
61471;SDS011;47337;54.068;12.114;2024-02-26T01:01:47;8.05;;;5.78;;
61471;SDS011;47337;54.068;12.114;2024-02-26T01:04:13;10.13;;;6.00;;
61471;SDS011;47337;54.068;12.114;2024-02-26T01:06:38;8.55;;;5.30;;
61471;SDS011;47337;54.068;12.114;2024-02-26T01:09:03;9.30;;;5.47;;
61471;SDS011;47337;54.068;12.114;2024-02-26T01:11:31;8.38;;;5.40;;
61471;SDS011;47337;54.068;12.114;2024-02-26T01:13:56;7.75;;;5.38;;
61471;SDS011;47337;54.068;12.114;2024-02-26T01:16:22;8.27;;;5.05;;
61471;SDS011;47337;54.068;12.114;2024-02-26T01:18:48;7.78;;;5.43;;
61471;SDS011;47337;54.068;12.114;2024-02-26T01:21:13;9.25;;;5.07;;
61471;SDS011;47337;54.068;12.114;2024-02-26T01:23:38;8.45;;;4.95;;
61471;SDS011;47337;54.068;12.114;2024-02-26T01:26:03;8.77;;;5.65;;
61471;SDS011;47337;54.068;12.114;2024-02-26T01:28:29;8.55;;;5.65;;
61471;SDS011;47337;54.068;12.114;2024-02-26T01:30:57;7.15;;;5.07;;
61471;SDS011;47337;54.068;12.114;2024-02-26T01:33:25;8.35;;;5.88;;
61471;SDS011;47337;54.068;12.114;2024-02-26T01:35:51;8.13;;;4.93;;
61471;SDS011;47337;54.068;12.114;2024-02-26T01:38:16;9.25;;;6.00;;
61471;SDS011;47337;54.068;12.114;2024-02-26T01:40:41;10.23;;;5.88;;
61471;SDS011;47337;54.068;12.114;2024-02-26T01:43:07;6.85;;;5.45;;
61471;SDS011;47337;54.068;12.114;2024-02-26T01:45:32;11.02;;;5.32;;
61471;SDS011;47337;54.068;12.114;2024-02-26T01:47:57;9.50;;;6.10;;
61471;SDS011;47337;54.068;12.114;2024-02-26T01:50:23;8.65;;;5.10;;
61471;SDS011;47337;54.068;12.114;2024-02-26T01:52:49;7.35;;;5.25;;
61471;SDS011;47337;54.068;12.114;2024-02-26T01:55:15;8.82;;;5.32;;
61471;SDS011;47337;54.068;12.114;2024-02-26T01:57:42;10.10;;;5.90;;
61471;SDS011;47337;54.068;12.114;2024-02-26T02:00:07;8.52;;;5.53;;
61471;SDS011;47337;54.068;12.114;2024-02-26T02:02:33;7.72;;;5.43;;
61471;SDS011;47337;54.068;12.114;2024-02-26T02:04:58;6.80;;;4.70;;
61471;SDS011;47337;54.068;12.114;2024-02-26T02:07:24;8.55;;;5.45;;
61471;SDS011;47337;54.068;12.114;2024-02-26T02:09:52;7.95;;;5.22;;
61471;SDS011;47337;54.068;12.114;2024-02-26T02:12:20;9.50;;;5.65;;
61471;SDS011;47337;54.068;12.114;2024-02-26T02:14:46;7.28;;;5.30;;
61471;SDS011;47337;54.068;12.114;2024-02-26T02:17:11;8.00;;;5.57;;
61471;SDS011;47337;54.068;12.114;2024-02-26T02:19:37;9.52;;;5.70;;
61471;SDS011;47337;54.068;12.114;2024-02-26T02:22:02;7.15;;;5.45;;
61471;SDS011;47337;54.068;12.114;2024-02-26T02:24:27;8.00;;;5.60;;
61471;SDS011;47337;54.068;12.114;2024-02-26T02:26:53;9.25;;;5.38;;
61471;SDS011;47337;54.068;12.114;2024-02-26T02:29:18;8.50;;;5.80;;
61471;SDS011;47337;54.068;12.114;2024-02-26T02:31:43;8.57;;;5.53;;
61471;SDS011;47337;54.068;12.114;2024-02-26T02:34:09;8.10;;;5.65;;
61471;SDS011;47337;54.068;12.114;2024-02-26T02:36:34;9.38;;;5.68;;
61471;SDS011;47337;54.068;12.114;2024-02-26T02:39:02;9.73;;;5.78;;
61471;SDS011;47337;54.068;12.114;2024-02-26T02:41:28;7.90;;;5.45;;
61471;SDS011;47337;54.068;12.114;2024-02-26T02:43:54;8.63;;;6.03;;
61471;SDS011;47337;54.068;12.114;2024-02-26T02:46:20;9.40;;;6.45;;
61471;SDS011;47337;54.068;12.114;2024-02-26T02:48:47;10.20;;;5.32;;
61471;SDS011;47337;54.068;12.114;2024-02-26T02:51:13;11.27;;;6.25;;
61471;SDS011;47337;54.068;12.114;2024-02-26T02:53:38;10.52;;;6.53;;
61471;SDS011;47337;54.068;12.114;2024-02-26T02:56:06;9.00;;;5.60;;
61471;SDS011;47337;54.068;12.114;2024-02-26T02:58:33;9.05;;;6.25;;
61471;SDS011;47337;54.068;12.114;2024-02-26T03:01:01;7.88;;;5.60;;
61471;SDS011;47337;54.068;12.114;2024-02-26T03:03:26;8.68;;;5.93;;
61471;SDS011;47337;54.068;12.114;2024-02-26T03:05:53;8.80;;;6.15;;
61471;SDS011;47337;54.068;12.114;2024-02-26T03:08:18;8.70;;;5.78;;
61471;SDS011;47337;54.068;12.114;2024-02-26T03:10:46;9.85;;;6.15;;
61471;SDS011;47337;54.068;12.114;2024-02-26T03:13:11;8.30;;;5.88;;
61471;SDS011;47337;54.068;12.114;2024-02-26T03:15:36;9.38;;;5.50;;
61471;SDS011;47337;54.068;12.114;2024-02-26T03:18:02;9.23;;;5.97;;
61471;SDS011;47337;54.068;12.114;2024-02-26T03:20:27;10.48;;;6.72;;
61471;SDS011;47337;54.068;12.114;2024-02-26T03:22:52;7.78;;;5.13;;
61471;SDS011;47337;54.068;12.114;2024-02-26T03:25:17;9.93;;;5.85;;
61471;SDS011;47337;54.068;12.114;2024-02-26T03:27:43;9.95;;;6.05;;
61471;SDS011;47337;54.068;12.114;2024-02-26T03:30:08;9.43;;;5.72;;
61471;SDS011;47337;54.068;12.114;2024-02-26T03:32:34;8.95;;;5.75;;
61471;SDS011;47337;54.068;12.114;2024-02-26T03:34:59;12.02;;;6.20;;
61471;SDS011;47337;54.068;12.114;2024-02-26T03:37:25;16.67;;;6.30;;
61471;SDS011;47337;54.068;12.114;2024-02-26T03:39:50;8.93;;;6.00;;
61471;SDS011;47337;54.068;12.114;2024-02-26T03:42:15;10.05;;;5.93;;
61471;SDS011;47337;54.068;12.114;2024-02-26T03:44:41;11.20;;;6.32;;
61471;SDS011;47337;54.068;12.114;2024-02-26T03:47:06;8.95;;;6.38;;
61471;SDS011;47337;54.068;12.114;2024-02-26T03:49:31;9.93;;;6.88;;
61471;SDS011;47337;54.068;12.114;2024-02-26T03:51:57;9.77;;;6.38;;
61471;SDS011;47337;54.068;12.114;2024-02-26T03:54:22;9.07;;;5.97;;
61471;SDS011;47337;54.068;12.114;2024-02-26T03:56:47;8.32;;;5.93;;
61471;SDS011;47337;54.068;12.114;2024-02-26T03:59:12;10.35;;;6.28;;
61471;SDS011;47337;54.068;12.114;2024-02-26T04:01:38;10.98;;;6.78;;
61471;SDS011;47337;54.068;12.114;2024-02-26T04:04:03;10.40;;;6.63;;
61471;SDS011;47337;54.068;12.114;2024-02-26T04:06:31;9.48;;;6.40;;
61471;SDS011;47337;54.068;12.114;2024-02-26T04:08:57;13.80;;;6.60;;
61471;SDS011;47337;54.068;12.114;2024-02-26T04:11:22;9.73;;;6.03;;
61471;SDS011;47337;54.068;12.114;2024-02-26T04:13:47;9.45;;;6.10;;
61471;SDS011;47337;54.068;12.114;2024-02-26T04:16:16;8.73;;;5.65;;
61471;SDS011;47337;54.068;12.114;2024-02-26T04:18:41;10.27;;;6.10;;
61471;SDS011;47337;54.068;12.114;2024-02-26T04:21:06;10.52;;;6.32;;
61471;SDS011;47337;54.068;12.114;2024-02-26T04:23:34;11.57;;;6.38;;
61471;SDS011;47337;54.068;12.114;2024-02-26T04:26:02;9.40;;;6.60;;
61471;SDS011;47337;54.068;12.114;2024-02-26T04:28:27;10.65;;;6.60;;
61471;SDS011;47337;54.068;12.114;2024-02-26T04:30:54;9.68;;;6.03;;
61471;SDS011;47337;54.068;12.114;2024-02-26T04:33:24;8.70;;;6.28;;
61471;SDS011;47337;54.068;12.114;2024-02-26T04:35:50;9.10;;;5.85;;
61471;SDS011;47337;54.068;12.114;2024-02-26T04:38:17;10.85;;;5.93;;
61471;SDS011;47337;54.068;12.114;2024-02-26T04:40:42;9.73;;;5.95;;
61471;SDS011;47337;54.068;12.114;2024-02-26T04:43:08;10.10;;;6.47;;
61471;SDS011;47337;54.068;12.114;2024-02-26T04:45:33;9.55;;;5.82;;
61471;SDS011;47337;54.068;12.114;2024-02-26T04:47:59;8.20;;;5.47;;
61471;SDS011;47337;54.068;12.114;2024-02-26T04:50:24;10.75;;;6.22;;
61471;SDS011;47337;54.068;12.114;2024-02-26T04:52:49;11.85;;;6.00;;
61471;SDS011;47337;54.068;12.114;2024-02-26T04:55:17;9.35;;;5.85;;
61471;SDS011;47337;54.068;12.114;2024-02-26T04:57:42;9.10;;;5.60;;
61471;SDS011;47337;54.068;12.114;2024-02-26T05:00:08;11.23;;;5.68;;
61471;SDS011;47337;54.068;12.114;2024-02-26T05:02:35;10.60;;;5.85;;
61471;SDS011;47337;54.068;12.114;2024-02-26T05:05:04;8.75;;;5.68;;
61471;SDS011;47337;54.068;12.114;2024-02-26T05:07:29;8.43;;;5.53;;
61471;SDS011;47337;54.068;12.114;2024-02-26T05:09:55;9.18;;;5.88;;
61471;SDS011;47337;54.068;12.114;2024-02-26T05:12:21;8.15;;;5.93;;
61471;SDS011;47337;54.068;12.114;2024-02-26T05:14:48;13.68;;;6.55;;
61471;SDS011;47337;54.068;12.114;2024-02-26T05:17:13;9.38;;;6.47;;
61471;SDS011;47337;54.068;12.114;2024-02-26T05:19:38;10.05;;;6.72;;
61471;SDS011;47337;54.068;12.114;2024-02-26T05:22:04;11.20;;;6.68;;
61471;SDS011;47337;54.068;12.114;2024-02-26T05:24:29;10.43;;;6.70;;
61471;SDS011;47337;54.068;12.114;2024-02-26T05:26:54;13.57;;;10.02;;
61471;SDS011;47337;54.068;12.114;2024-02-26T05:29:20;16.40;;;11.18;;
61471;SDS011;47337;54.068;12.114;2024-02-26T05:31:45;19.60;;;11.90;;
61471;SDS011;47337;54.068;12.114;2024-02-26T05:34:11;19.08;;;10.80;;
61471;SDS011;47337;54.068;12.114;2024-02-26T05:36:36;12.73;;;7.63;;
61471;SDS011;47337;54.068;12.114;2024-02-26T05:39:01;13.57;;;6.93;;
61471;SDS011;47337;54.068;12.114;2024-02-26T05:41:28;12.73;;;6.70;;
61471;SDS011;47337;54.068;12.114;2024-02-26T05:43:54;12.20;;;7.07;;
61471;SDS011;47337;54.068;12.114;2024-02-26T05:46:19;9.82;;;6.57;;
61471;SDS011;47337;54.068;12.114;2024-02-26T05:48:47;12.68;;;6.82;;
61471;SDS011;47337;54.068;12.114;2024-02-26T05:51:12;13.80;;;7.72;;
61471;SDS011;47337;54.068;12.114;2024-02-26T05:53:38;12.48;;;7.22;;
61471;SDS011;47337;54.068;12.114;2024-02-26T05:56:05;12.02;;;6.50;;
61471;SDS011;47337;54.068;12.114;2024-02-26T05:58:31;10.80;;;6.75;;
61471;SDS011;47337;54.068;12.114;2024-02-26T06:00:58;12.25;;;7.57;;
61471;SDS011;47337;54.068;12.114;2024-02-26T06:03:25;11.25;;;6.55;;
61471;SDS011;47337;54.068;12.114;2024-02-26T06:05:50;10.65;;;6.13;;
61471;SDS011;47337;54.068;12.114;2024-02-26T06:08:15;9.98;;;6.72;;
61471;SDS011;47337;54.068;12.114;2024-02-26T06:10:40;12.90;;;7.40;;
61471;SDS011;47337;54.068;12.114;2024-02-26T06:13:06;11.48;;;6.40;;
61471;SDS011;47337;54.068;12.114;2024-02-26T06:15:31;13.02;;;7.45;;
61471;SDS011;47337;54.068;12.114;2024-02-26T06:17:56;9.18;;;6.13;;
61471;SDS011;47337;54.068;12.114;2024-02-26T06:20:22;12.07;;;7.55;;
61471;SDS011;47337;54.068;12.114;2024-02-26T06:22:47;12.93;;;6.72;;
61471;SDS011;47337;54.068;12.114;2024-02-26T06:25:12;8.95;;;6.20;;
61471;SDS011;47337;54.068;12.114;2024-02-26T06:27:37;10.75;;;6.85;;
61471;SDS011;47337;54.068;12.114;2024-02-26T06:30:03;10.70;;;6.65;;
61471;SDS011;47337;54.068;12.114;2024-02-26T06:32:28;12.45;;;7.47;;
61471;SDS011;47337;54.068;12.114;2024-02-26T06:34:54;10.38;;;6.95;;
61471;SDS011;47337;54.068;12.114;2024-02-26T06:37:20;12.00;;;7.35;;
61471;SDS011;47337;54.068;12.114;2024-02-26T06:39:45;13.40;;;8.00;;
61471;SDS011;47337;54.068;12.114;2024-02-26T06:42:10;14.18;;;8.13;;
61471;SDS011;47337;54.068;12.114;2024-02-26T06:44:35;14.05;;;7.90;;
61471;SDS011;47337;54.068;12.114;2024-02-26T06:47:03;14.25;;;8.65;;
61471;SDS011;47337;54.068;12.114;2024-02-26T06:49:30;13.75;;;8.60;;
61471;SDS011;47337;54.068;12.114;2024-02-26T06:51:56;14.13;;;8.70;;
61471;SDS011;47337;54.068;12.114;2024-02-26T06:54:21;13.85;;;8.43;;
61471;SDS011;47337;54.068;12.114;2024-02-26T06:56:46;12.73;;;7.72;;
61471;SDS011;47337;54.068;12.114;2024-02-26T06:59:14;12.18;;;8.27;;
61471;SDS011;47337;54.068;12.114;2024-02-26T07:01:42;13.10;;;7.40;;
61471;SDS011;47337;54.068;12.114;2024-02-26T07:04:08;13.68;;;7.78;;
61471;SDS011;47337;54.068;12.114;2024-02-26T07:06:33;20.85;;;8.77;;
61471;SDS011;47337;54.068;12.114;2024-02-26T07:08:59;14.80;;;8.57;;
61471;SDS011;47337;54.068;12.114;2024-02-26T07:11:24;13.20;;;8.68;;
61471;SDS011;47337;54.068;12.114;2024-02-26T07:13:49;15.05;;;8.52;;
61471;SDS011;47337;54.068;12.114;2024-02-26T07:16:14;16.80;;;9.05;;
61471;SDS011;47337;54.068;12.114;2024-02-26T07:18:42;12.55;;;8.40;;
61471;SDS011;47337;54.068;12.114;2024-02-26T07:21:13;13.77;;;9.15;;
61471;SDS011;47337;54.068;12.114;2024-02-26T07:23:39;12.45;;;8.18;;
61471;SDS011;47337;54.068;12.114;2024-02-26T07:26:04;13.70;;;8.20;;
61471;SDS011;47337;54.068;12.114;2024-02-26T07:28:29;15.88;;;9.15;;
61471;SDS011;47337;54.068;12.114;2024-02-26T07:30:54;15.13;;;8.02;;
61471;SDS011;47337;54.068;12.114;2024-02-26T07:33:20;12.75;;;7.97;;
61471;SDS011;47337;54.068;12.114;2024-02-26T07:35:45;13.68;;;9.00;;
61471;SDS011;47337;54.068;12.114;2024-02-26T07:38:10;16.50;;;9.88;;
61471;SDS011;47337;54.068;12.114;2024-02-26T07:40:38;13.68;;;8.25;;
61471;SDS011;47337;54.068;12.114;2024-02-26T07:43:03;14.52;;;8.85;;
61471;SDS011;47337;54.068;12.114;2024-02-26T07:45:28;18.52;;;10.18;;
61471;SDS011;47337;54.068;12.114;2024-02-26T07:47:53;14.55;;;8.50;;
61471;SDS011;47337;54.068;12.114;2024-02-26T07:50:19;12.50;;;8.18;;
61471;SDS011;47337;54.068;12.114;2024-02-26T07:52:44;14.65;;;8.85;;
61471;SDS011;47337;54.068;12.114;2024-02-26T07:55:10;12.57;;;8.13;;
61471;SDS011;47337;54.068;12.114;2024-02-26T07:57:35;16.48;;;8.45;;
61471;SDS011;47337;54.068;12.114;2024-02-26T08:00:04;16.25;;;8.77;;
61471;SDS011;47337;54.068;12.114;2024-02-26T08:02:32;15.07;;;9.38;;
61471;SDS011;47337;54.068;12.114;2024-02-26T08:04:59;17.42;;;8.98;;
61471;SDS011;47337;54.068;12.114;2024-02-26T08:07:24;18.17;;;9.20;;
61471;SDS011;47337;54.068;12.114;2024-02-26T08:09:49;15.50;;;9.50;;
61471;SDS011;47337;54.068;12.114;2024-02-26T08:12:14;14.18;;;8.95;;
61471;SDS011;47337;54.068;12.114;2024-02-26T08:14:40;14.85;;;7.93;;
61471;SDS011;47337;54.068;12.114;2024-02-26T08:17:05;11.65;;;7.82;;
61471;SDS011;47337;54.068;12.114;2024-02-26T08:19:31;14.77;;;9.10;;
61471;SDS011;47337;54.068;12.114;2024-02-26T08:21:56;13.45;;;8.32;;
61471;SDS011;47337;54.068;12.114;2024-02-26T08:24:22;11.55;;;8.57;;
61471;SDS011;47337;54.068;12.114;2024-02-26T08:26:47;12.82;;;8.20;;
61471;SDS011;47337;54.068;12.114;2024-02-26T08:29:12;13.55;;;8.73;;
61471;SDS011;47337;54.068;12.114;2024-02-26T08:31:38;18.02;;;8.98;;
61471;SDS011;47337;54.068;12.114;2024-02-26T08:34:03;11.50;;;7.57;;
61471;SDS011;47337;54.068;12.114;2024-02-26T08:36:29;17.58;;;8.88;;
61471;SDS011;47337;54.068;12.114;2024-02-26T08:38:57;15.50;;;8.98;;
61471;SDS011;47337;54.068;12.114;2024-02-26T08:41:27;12.68;;;8.15;;
61471;SDS011;47337;54.068;12.114;2024-02-26T08:43:52;14.48;;;8.95;;
61471;SDS011;47337;54.068;12.114;2024-02-26T08:46:17;16.83;;;8.75;;
61471;SDS011;47337;54.068;12.114;2024-02-26T08:48:43;15.50;;;8.40;;
61471;SDS011;47337;54.068;12.114;2024-02-26T08:51:08;13.52;;;9.15;;
61471;SDS011;47337;54.068;12.114;2024-02-26T08:53:34;18.00;;;10.23;;
61471;SDS011;47337;54.068;12.114;2024-02-26T08:55:59;13.75;;;8.75;;
61471;SDS011;47337;54.068;12.114;2024-02-26T08:58:25;15.32;;;8.63;;
61471;SDS011;47337;54.068;12.114;2024-02-26T09:00:51;12.60;;;8.13;;
61471;SDS011;47337;54.068;12.114;2024-02-26T09:03:16;14.20;;;8.68;;
61471;SDS011;47337;54.068;12.114;2024-02-26T09:05:42;14.15;;;9.07;;
61471;SDS011;47337;54.068;12.114;2024-02-26T09:08:07;10.27;;;7.35;;
61471;SDS011;47337;54.068;12.114;2024-02-26T09:10:32;10.50;;;7.70;;
61471;SDS011;47337;54.068;12.114;2024-02-26T09:12:58;15.63;;;7.55;;
61471;SDS011;47337;54.068;12.114;2024-02-26T09:15:23;14.60;;;7.18;;
61471;SDS011;47337;54.068;12.114;2024-02-26T09:17:49;13.50;;;7.43;;
61471;SDS011;47337;54.068;12.114;2024-02-26T09:20:15;11.02;;;6.50;;
61471;SDS011;47337;54.068;12.114;2024-02-26T09:22:41;7.10;;;5.15;;
61471;SDS011;47337;54.068;12.114;2024-02-26T09:25:07;7.15;;;5.05;;
61471;SDS011;47337;54.068;12.114;2024-02-26T09:27:32;8.20;;;5.70;;
61471;SDS011;47337;54.068;12.114;2024-02-26T09:29:58;5.15;;;4.40;;
61471;SDS011;47337;54.068;12.114;2024-02-26T09:32:23;6.18;;;4.70;;
61471;SDS011;47337;54.068;12.114;2024-02-26T09:34:49;6.25;;;4.85;;
61471;SDS011;47337;54.068;12.114;2024-02-26T09:37:15;5.57;;;4.63;;
61471;SDS011;47337;54.068;12.114;2024-02-26T09:39:40;6.97;;;4.32;;
61471;SDS011;47337;54.068;12.114;2024-02-26T09:42:05;5.13;;;4.20;;
61471;SDS011;47337;54.068;12.114;2024-02-26T09:44:37;5.00;;;4.07;;
61471;SDS011;47337;54.068;12.114;2024-02-26T09:47:05;5.80;;;3.92;;
61471;SDS011;47337;54.068;12.114;2024-02-26T09:49:30;6.43;;;4.25;;
61471;SDS011;47337;54.068;12.114;2024-02-26T09:51:55;5.15;;;4.18;;
61471;SDS011;47337;54.068;12.114;2024-02-26T09:54:25;4.35;;;3.90;;
61471;SDS011;47337;54.068;12.114;2024-02-26T09:56:53;6.40;;;4.13;;
61471;SDS011;47337;54.068;12.114;2024-02-26T09:59:20;4.45;;;4.00;;
61471;SDS011;47337;54.068;12.114;2024-02-26T10:01:45;5.78;;;3.85;;
61471;SDS011;47337;54.068;12.114;2024-02-26T10:04:13;5.88;;;4.25;;
61471;SDS011;47337;54.068;12.114;2024-02-26T10:06:41;4.55;;;3.92;;
61471;SDS011;47337;54.068;12.114;2024-02-26T10:09:09;4.82;;;4.05;;
61471;SDS011;47337;54.068;12.114;2024-02-26T10:11:34;7.72;;;4.72;;
61471;SDS011;47337;54.068;12.114;2024-02-26T10:14:00;5.80;;;4.15;;
61471;SDS011;47337;54.068;12.114;2024-02-26T10:16:25;7.55;;;4.72;;
61471;SDS011;47337;54.068;12.114;2024-02-26T10:18:52;9.40;;;4.35;;
61471;SDS011;47337;54.068;12.114;2024-02-26T10:21:21;6.05;;;4.28;;
61471;SDS011;47337;54.068;12.114;2024-02-26T10:23:47;12.10;;;4.63;;
61471;SDS011;47337;54.068;12.114;2024-02-26T10:26:12;6.45;;;3.92;;
61471;SDS011;47337;54.068;12.114;2024-02-26T10:28:39;5.25;;;3.10;;
61471;SDS011;47337;54.068;12.114;2024-02-26T10:31:04;4.68;;;3.03;;
61471;SDS011;47337;54.068;12.114;2024-02-26T10:33:29;5.32;;;3.13;;
61471;SDS011;47337;54.068;12.114;2024-02-26T10:35:55;5.28;;;3.30;;
61471;SDS011;47337;54.068;12.114;2024-02-26T10:38:20;3.17;;;2.67;;
61471;SDS011;47337;54.068;12.114;2024-02-26T10:40:46;4.65;;;3.00;;
61471;SDS011;47337;54.068;12.114;2024-02-26T10:43:13;3.13;;;2.83;;
61471;SDS011;47337;54.068;12.114;2024-02-26T10:45:41;4.18;;;3.05;;
61471;SDS011;47337;54.068;12.114;2024-02-26T10:48:14;4.25;;;2.95;;
61471;SDS011;47337;54.068;12.114;2024-02-26T10:50:39;4.13;;;2.78;;
61471;SDS011;47337;54.068;12.114;2024-02-26T10:53:07;3.85;;;3.13;;
61471;SDS011;47337;54.068;12.114;2024-02-26T10:55:39;3.70;;;2.78;;
61471;SDS011;47337;54.068;12.114;2024-02-26T10:58:05;4.57;;;2.38;;
61471;SDS011;47337;54.068;12.114;2024-02-26T11:00:32;3.75;;;2.67;;
61471;SDS011;47337;54.068;12.114;2024-02-26T11:02:57;2.97;;;2.47;;
61471;SDS011;47337;54.068;12.114;2024-02-26T11:05:26;5.40;;;2.72;;
61471;SDS011;47337;54.068;12.114;2024-02-26T11:07:52;5.20;;;3.10;;
61471;SDS011;47337;54.068;12.114;2024-02-26T11:10:17;3.97;;;2.90;;
61471;SDS011;47337;54.068;12.114;2024-02-26T11:12:43;4.35;;;3.28;;
61471;SDS011;47337;54.068;12.114;2024-02-26T11:15:09;4.57;;;3.15;;
61471;SDS011;47337;54.068;12.114;2024-02-26T11:17:34;3.08;;;2.63;;
61471;SDS011;47337;54.068;12.114;2024-02-26T11:20:01;3.85;;;2.60;;
61471;SDS011;47337;54.068;12.114;2024-02-26T11:22:28;3.08;;;2.30;;
61471;SDS011;47337;54.068;12.114;2024-02-26T11:24:55;3.88;;;2.42;;
61471;SDS011;47337;54.068;12.114;2024-02-26T11:27:26;3.85;;;2.50;;
61471;SDS011;47337;54.068;12.114;2024-02-26T11:29:57;4.32;;;2.67;;
61471;SDS011;47337;54.068;12.114;2024-02-26T11:32:25;1.88;;;1.73;;
61471;SDS011;47337;54.068;12.114;2024-02-26T11:34:55;2.50;;;2.30;;
61471;SDS011;47337;54.068;12.114;2024-02-26T11:37:20;5.63;;;2.50;;
61471;SDS011;47337;54.068;12.114;2024-02-26T11:39:45;3.42;;;2.38;;
61471;SDS011;47337;54.068;12.114;2024-02-26T11:42:13;6.75;;;2.80;;
61471;SDS011;47337;54.068;12.114;2024-02-26T11:44:38;3.83;;;2.80;;
61471;SDS011;47337;54.068;12.114;2024-02-26T11:47:20;2.95;;;1.92;;
61471;SDS011;47337;54.068;12.114;2024-02-26T11:49:48;2.28;;;2.08;;
61471;SDS011;47337;54.068;12.114;2024-02-26T11:52:17;2.85;;;2.28;;
61471;SDS011;47337;54.068;12.114;2024-02-26T11:59:55;2.38;;;2.03;;
61471;SDS011;47337;54.068;12.114;2024-02-26T12:03:03;3.22;;;2.30;;
61471;SDS011;47337;54.068;12.114;2024-02-26T12:05:15;4.15;;;2.30;;
61471;SDS011;47337;54.068;12.114;2024-02-26T12:08:14;3.33;;;2.15;;
61471;SDS011;47337;54.068;12.114;2024-02-26T12:10:33;3.03;;;2.00;;
61471;SDS011;47337;54.068;12.114;2024-02-26T12:15:39;4.07;;;2.10;;
61471;SDS011;47337;54.068;12.114;2024-02-26T12:18:05;3.97;;;2.10;;
61471;SDS011;47337;54.068;12.114;2024-02-26T12:20:31;3.58;;;2.00;;
61471;SDS011;47337;54.068;12.114;2024-02-26T12:22:56;3.15;;;2.10;;
61471;SDS011;47337;54.068;12.114;2024-02-26T12:25:23;3.05;;;1.83;;
61471;SDS011;47337;54.068;12.114;2024-02-26T12:27:49;2.28;;;1.60;;
61471;SDS011;47337;54.068;12.114;2024-02-26T12:30:16;3.85;;;2.30;;
61471;SDS011;47337;54.068;12.114;2024-02-26T12:32:44;4.85;;;1.90;;
61471;SDS011;47337;54.068;12.114;2024-02-26T12:35:09;2.13;;;1.52;;
61471;SDS011;47337;54.068;12.114;2024-02-26T12:37:37;4.07;;;2.00;;
61471;SDS011;47337;54.068;12.114;2024-02-26T12:40:07;2.00;;;1.80;;
61471;SDS011;47337;54.068;12.114;2024-02-26T12:42:33;2.28;;;1.95;;
61471;SDS011;47337;54.068;12.114;2024-02-26T12:45:06;4.50;;;2.80;;
61471;SDS011;47337;54.068;12.114;2024-02-26T12:47:40;2.25;;;1.83;;
61471;SDS011;47337;54.068;12.114;2024-02-26T12:50:06;2.15;;;1.90;;
61471;SDS011;47337;54.068;12.114;2024-02-26T12:52:32;3.53;;;2.05;;
61471;SDS011;47337;54.068;12.114;2024-02-26T12:54:58;2.00;;;1.80;;
61471;SDS011;47337;54.068;12.114;2024-02-26T12:57:23;3.05;;;1.95;;
61471;SDS011;47337;54.068;12.114;2024-02-26T12:59:49;2.10;;;1.65;;
61471;SDS011;47337;54.068;12.114;2024-02-26T13:02:14;2.90;;;2.05;;
61471;SDS011;47337;54.068;12.114;2024-02-26T13:04:39;4.57;;;2.80;;
61471;SDS011;47337;54.068;12.114;2024-02-26T13:07:05;3.50;;;2.30;;
61471;SDS011;47337;54.068;12.114;2024-02-26T13:09:33;2.72;;;2.28;;
61471;SDS011;47337;54.068;12.114;2024-02-26T13:12:03;1.90;;;1.80;;
61471;SDS011;47337;54.068;12.114;2024-02-26T13:14:29;2.30;;;1.80;;
61471;SDS011;47337;54.068;12.114;2024-02-26T13:16:57;2.63;;;2.08;;
61471;SDS011;47337;54.068;12.114;2024-02-26T13:19:22;4.90;;;2.72;;
61471;SDS011;47337;54.068;12.114;2024-02-26T13:21:48;3.65;;;2.28;;
61471;SDS011;47337;54.068;12.114;2024-02-26T13:24:13;5.45;;;2.33;;
61471;SDS011;47337;54.068;12.114;2024-02-26T13:26:38;4.18;;;3.58;;
61471;SDS011;47337;54.068;12.114;2024-02-26T13:29:04;5.65;;;4.47;;
61471;SDS011;47337;54.068;12.114;2024-02-26T13:31:30;7.10;;;4.00;;
61471;SDS011;47337;54.068;12.114;2024-02-26T13:33:55;4.75;;;3.45;;
61471;SDS011;47337;54.068;12.114;2024-02-26T13:36:24;8.02;;;3.60;;
61471;SDS011;47337;54.068;12.114;2024-02-26T13:38:53;4.93;;;3.65;;
61471;SDS011;47337;54.068;12.114;2024-02-26T13:41:19;7.88;;;3.83;;
61471;SDS011;47337;54.068;12.114;2024-02-26T13:43:44;4.68;;;3.80;;
61471;SDS011;47337;54.068;12.114;2024-02-26T13:46:10;8.48;;;3.85;;
61471;SDS011;47337;54.068;12.114;2024-02-26T13:48:36;7.57;;;3.58;;
61471;SDS011;47337;54.068;12.114;2024-02-26T13:51:03;8.45;;;4.50;;
61471;SDS011;47337;54.068;12.114;2024-02-26T13:53:29;6.40;;;4.10;;
61471;SDS011;47337;54.068;12.114;2024-02-26T13:55:54;7.20;;;4.50;;
61471;SDS011;47337;54.068;12.114;2024-02-26T13:58:20;5.40;;;4.57;;
61471;SDS011;47337;54.068;12.114;2024-02-26T14:00:48;8.70;;;4.57;;
61471;SDS011;47337;54.068;12.114;2024-02-26T14:03:14;7.32;;;5.18;;
61471;SDS011;47337;54.068;12.114;2024-02-26T14:05:39;6.03;;;4.32;;
61471;SDS011;47337;54.068;12.114;2024-02-26T14:08:05;8.00;;;4.38;;
61471;SDS011;47337;54.068;12.114;2024-02-26T14:10:30;8.60;;;4.10;;
61471;SDS011;47337;54.068;12.114;2024-02-26T14:12:56;6.95;;;4.60;;
61471;SDS011;47337;54.068;12.114;2024-02-26T14:15:22;6.38;;;4.93;;
61471;SDS011;47337;54.068;12.114;2024-02-26T14:17:50;5.57;;;4.97;;
61471;SDS011;47337;54.068;12.114;2024-02-26T14:20:21;7.38;;;5.00;;
61471;SDS011;47337;54.068;12.114;2024-02-26T14:22:46;6.15;;;4.60;;
61471;SDS011;47337;54.068;12.114;2024-02-26T14:25:12;8.43;;;5.22;;
61471;SDS011;47337;54.068;12.114;2024-02-26T14:27:37;7.60;;;4.57;;
61471;SDS011;47337;54.068;12.114;2024-02-26T14:30:02;6.15;;;4.22;;